createdAt,value
2022-11-15T00:26:33.700Z,12.02
2022-11-15T00:55:45.353Z,12.26
2022-11-15T01:24:52.976Z,12.18
2022-11-15T01:54:04.401Z,12.06
2022-11-15T02:23:11.071Z,12.01
2022-11-15T02:52:16.718Z,11.92
2022-11-15T03:21:23.876Z,11.94
2022-11-15T03:50:33.170Z,12.05
2022-11-15T04:19:40.595Z,12.11
2022-11-15T04:48:45.013Z,12.25
2022-11-15T05:17:47.969Z,12.37
2022-11-15T05:46:46.193Z,12.35
2022-11-15T06:15:42.977Z,12.11
2022-11-15T06:44:41.430Z,12.03
2022-11-15T07:13:46.805Z,11.9
2022-11-15T07:42:57.908Z,12.01
2022-11-15T08:12:06.429Z,12.15
2022-11-15T08:41:16.733Z,12.37
2022-11-15T09:10:28.781Z,12.74
2022-11-15T09:39:39.924Z,12.86
2022-11-15T10:08:47.622Z,13.16
2022-11-15T10:38:02.691Z,13.81
2022-11-15T11:07:12.970Z,14.08
2022-11-15T11:36:17.016Z,14.22
2022-11-15T12:05:28.064Z,14.63
2022-11-15T12:34:38.648Z,15.01
2022-11-15T13:03:50.496Z,15.36
2022-11-15T13:33:00.370Z,15.62
2022-11-15T14:02:03.844Z,15.48
2022-11-15T14:31:03.489Z,15.11
2022-11-15T15:00:11.656Z,14.99
2022-11-15T15:29:20.983Z,14.78
2022-11-15T15:58:27.875Z,14.38
2022-11-15T16:27:40.301Z,14.07
2022-11-15T16:56:43.537Z,13.96
2022-11-15T17:25:50.975Z,13.86
2022-11-15T17:54:55.387Z,13.81
2022-11-15T18:24:07.376Z,13.69
2022-11-15T18:53:09.170Z,13.46
2022-11-15T19:22:14.997Z,13.44
2022-11-15T19:51:23.455Z,13.33
2022-11-15T20:20:28.008Z,13.1
2022-11-15T20:49:28.958Z,13.05
2022-11-15T21:18:26.229Z,12.92
2022-11-15T21:47:29.325Z,12.68
2022-11-15T22:16:34.661Z,12.54
2022-11-15T22:45:39.143Z,12.3
2022-11-15T23:14:51.858Z,12.26
2022-11-15T23:43:58.717Z,11.95
